sensor_id;sensor_type;location;lat;lon;timestamp;P1;durP1;ratioP1;P2;durP2;ratioP2
23884;SDS011;12123;53.088;7.392;2022-10-23T00:00:13;32.53;;;19.05;;
23884;SDS011;12123;53.088;7.392;2022-10-23T00:02:40;33.83;;;19.80;;
23884;SDS011;12123;53.088;7.392;2022-10-23T00:05:08;31.10;;;19.60;;
23884;SDS011;12123;53.088;7.392;2022-10-23T00:07:35;38.38;;;20.95;;
23884;SDS011;12123;53.088;7.392;2022-10-23T00:10:02;32.75;;;20.17;;
23884;SDS011;12123;53.088;7.392;2022-10-23T00:12:29;31.48;;;20.25;;
23884;SDS011;12123;53.088;7.392;2022-10-23T00:14:57;36.20;;;21.98;;
23884;SDS011;12123;53.088;7.392;2022-10-23T00:17:24;36.75;;;20.83;;
23884;SDS011;12123;53.088;7.392;2022-10-23T00:19:51;33.40;;;19.73;;
23884;SDS011;12123;53.088;7.392;2022-10-23T00:22:19;32.05;;;19.85;;
23884;SDS011;12123;53.088;7.392;2022-10-23T00:24:46;34.22;;;20.40;;
23884;SDS011;12123;53.088;7.392;2022-10-23T00:27:13;32.70;;;19.30;;
23884;SDS011;12123;53.088;7.392;2022-10-23T00:29:40;32.25;;;18.70;;
23884;SDS011;12123;53.088;7.392;2022-10-23T00:32:07;31.95;;;18.02;;
23884;SDS011;12123;53.088;7.392;2022-10-23T00:34:35;30.77;;;18.58;;
23884;SDS011;12123;53.088;7.392;2022-10-23T00:37:02;30.63;;;16.85;;
23884;SDS011;12123;53.088;7.392;2022-10-23T00:39:29;27.55;;;16.83;;
23884;SDS011;12123;53.088;7.392;2022-10-23T00:41:56;28.48;;;17.70;;
23884;SDS011;12123;53.088;7.392;2022-10-23T00:46:51;31.95;;;18.98;;
23884;SDS011;12123;53.088;7.392;2022-10-23T00:49:18;31.83;;;18.73;;
23884;SDS011;12123;53.088;7.392;2022-10-23T00:51:46;28.38;;;17.25;;
23884;SDS011;12123;53.088;7.392;2022-10-23T00:54:15;36.70;;;17.58;;
23884;SDS011;12123;53.088;7.392;2022-10-23T00:56:55;27.60;;;17.20;;
23884;SDS011;12123;53.088;7.392;2022-10-23T00:59:23;33.42;;;17.55;;
23884;SDS011;12123;53.088;7.392;2022-10-23T01:01:50;28.13;;;16.10;;
23884;SDS011;12123;53.088;7.392;2022-10-23T01:04:18;31.73;;;15.70;;
23884;SDS011;12123;53.088;7.392;2022-10-23T01:12:00;32.38;;;16.45;;
23884;SDS011;12123;53.088;7.392;2022-10-23T01:14:45;36.60;;;20.23;;
23884;SDS011;12123;53.088;7.392;2022-10-23T01:24:59;40.15;;;20.23;;
23884;SDS011;12123;53.088;7.392;2022-10-23T01:30:11;39.13;;;17.85;;
23884;SDS011;12123;53.088;7.392;2022-10-23T01:32:44;38.72;;;16.10;;
23884;SDS011;12123;53.088;7.392;2022-10-23T01:35:21;28.13;;;16.67;;
23884;SDS011;12123;53.088;7.392;2022-10-23T01:37:52;36.90;;;18.77;;
23884;SDS011;12123;53.088;7.392;2022-10-23T01:40:33;35.50;;;20.48;;
23884;SDS011;12123;53.088;7.392;2022-10-23T01:43:03;35.67;;;19.63;;
23884;SDS011;12123;53.088;7.392;2022-10-23T01:45:33;36.15;;;18.20;;
23884;SDS011;12123;53.088;7.392;2022-10-23T01:48:02;35.53;;;18.83;;
23884;SDS011;12123;53.088;7.392;2022-10-23T01:50:30;38.38;;;21.00;;
23884;SDS011;12123;53.088;7.392;2022-10-23T01:52:58;45.85;;;19.55;;
23884;SDS011;12123;53.088;7.392;2022-10-23T01:55:25;37.15;;;18.55;;
23884;SDS011;12123;53.088;7.392;2022-10-23T01:57:53;29.02;;;16.38;;
23884;SDS011;12123;53.088;7.392;2022-10-23T02:00:21;26.30;;;15.50;;
23884;SDS011;12123;53.088;7.392;2022-10-23T02:02:48;29.15;;;15.55;;
23884;SDS011;12123;53.088;7.392;2022-10-23T02:05:16;25.90;;;14.68;;
23884;SDS011;12123;53.088;7.392;2022-10-23T02:07:44;24.13;;;15.10;;
23884;SDS011;12123;53.088;7.392;2022-10-23T02:10:12;24.45;;;15.13;;
23884;SDS011;12123;53.088;7.392;2022-10-23T02:12:45;27.95;;;14.02;;
23884;SDS011;12123;53.088;7.392;2022-10-23T02:22:53;34.33;;;15.68;;
23884;SDS011;12123;53.088;7.392;2022-10-23T02:25:24;23.67;;;14.03;;
23884;SDS011;12123;53.088;7.392;2022-10-23T02:27:54;23.67;;;14.35;;
23884;SDS011;12123;53.088;7.392;2022-10-23T02:30:22;24.30;;;14.88;;
23884;SDS011;12123;53.088;7.392;2022-10-23T02:32:50;23.40;;;14.55;;
23884;SDS011;12123;53.088;7.392;2022-10-23T02:35:19;28.60;;;14.98;;
23884;SDS011;12123;53.088;7.392;2022-10-23T02:37:53;30.40;;;16.45;;
23884;SDS011;12123;53.088;7.392;2022-10-23T02:40:21;26.27;;;15.80;;
23884;SDS011;12123;53.088;7.392;2022-10-23T02:42:54;25.33;;;15.55;;
23884;SDS011;12123;53.088;7.392;2022-10-23T02:45:26;24.27;;;14.25;;
23884;SDS011;12123;53.088;7.392;2022-10-23T03:01:01;24.77;;;16.15;;
23884;SDS011;12123;53.088;7.392;2022-10-23T03:03:31;20.17;;;13.77;;
23884;SDS011;12123;53.088;7.392;2022-10-23T03:05:59;24.00;;;15.32;;
23884;SDS011;12123;53.088;7.392;2022-10-23T03:08:26;19.95;;;13.80;;
23884;SDS011;12123;53.088;7.392;2022-10-23T03:10:53;22.05;;;14.57;;
23884;SDS011;12123;53.088;7.392;2022-10-23T03:13:21;26.35;;;14.50;;
23884;SDS011;12123;53.088;7.392;2022-10-23T03:15:48;26.92;;;15.93;;
23884;SDS011;12123;53.088;7.392;2022-10-23T03:18:15;28.15;;;15.32;;
23884;SDS011;12123;53.088;7.392;2022-10-23T03:20:42;26.05;;;15.05;;
23884;SDS011;12123;53.088;7.392;2022-10-23T03:23:10;28.15;;;15.77;;
23884;SDS011;12123;53.088;7.392;2022-10-23T03:25:37;26.17;;;15.40;;
23884;SDS011;12123;53.088;7.392;2022-10-23T03:28:05;23.63;;;15.30;;
23884;SDS011;12123;53.088;7.392;2022-10-23T03:30:32;27.48;;;14.05;;
23884;SDS011;12123;53.088;7.392;2022-10-23T03:32:59;21.15;;;14.85;;
23884;SDS011;12123;53.088;7.392;2022-10-23T03:35:26;29.15;;;15.70;;
23884;SDS011;12123;53.088;7.392;2022-10-23T03:37:53;25.60;;;14.95;;
23884;SDS011;12123;53.088;7.392;2022-10-23T03:40:21;23.50;;;16.00;;
23884;SDS011;12123;53.088;7.392;2022-10-23T03:42:48;23.70;;;15.23;;
23884;SDS011;12123;53.088;7.392;2022-10-23T03:45:15;26.90;;;15.95;;
23884;SDS011;12123;53.088;7.392;2022-10-23T03:47:42;23.20;;;15.32;;
23884;SDS011;12123;53.088;7.392;2022-10-23T03:50:10;25.23;;;15.38;;
23884;SDS011;12123;53.088;7.392;2022-10-23T03:52:38;24.40;;;13.45;;
23884;SDS011;12123;53.088;7.392;2022-10-23T03:55:06;26.08;;;15.52;;
23884;SDS011;12123;53.088;7.392;2022-10-23T03:57:34;26.13;;;15.73;;
23884;SDS011;12123;53.088;7.392;2022-10-23T04:00:01;30.20;;;16.33;;
23884;SDS011;12123;53.088;7.392;2022-10-23T04:02:28;25.67;;;15.93;;
23884;SDS011;12123;53.088;7.392;2022-10-23T04:04:55;25.25;;;15.35;;
23884;SDS011;12123;53.088;7.392;2022-10-23T04:07:22;26.80;;;16.25;;
23884;SDS011;12123;53.088;7.392;2022-10-23T04:09:50;27.20;;;15.27;;
23884;SDS011;12123;53.088;7.392;2022-10-23T04:12:17;23.75;;;15.90;;
23884;SDS011;12123;53.088;7.392;2022-10-23T04:14:44;23.00;;;14.85;;
23884;SDS011;12123;53.088;7.392;2022-10-23T04:17:11;26.60;;;16.20;;
23884;SDS011;12123;53.088;7.392;2022-10-23T04:19:38;27.13;;;15.63;;
23884;SDS011;12123;53.088;7.392;2022-10-23T04:22:05;24.38;;;15.75;;
23884;SDS011;12123;53.088;7.392;2022-10-23T04:24:33;25.20;;;15.25;;
23884;SDS011;12123;53.088;7.392;2022-10-23T04:27:00;28.83;;;16.10;;
23884;SDS011;12123;53.088;7.392;2022-10-23T04:29:27;22.52;;;15.43;;
23884;SDS011;12123;53.088;7.392;2022-10-23T04:31:57;29.38;;;16.20;;
23884;SDS011;12123;53.088;7.392;2022-10-23T04:34:24;25.95;;;15.98;;
23884;SDS011;12123;53.088;7.392;2022-10-23T04:36:52;27.10;;;16.52;;
23884;SDS011;12123;53.088;7.392;2022-10-23T04:39:19;34.22;;;16.25;;
23884;SDS011;12123;53.088;7.392;2022-10-23T04:41:46;30.60;;;17.30;;
23884;SDS011;12123;53.088;7.392;2022-10-23T04:44:13;27.80;;;16.45;;
23884;SDS011;12123;53.088;7.392;2022-10-23T04:46:40;32.72;;;17.38;;
23884;SDS011;12123;53.088;7.392;2022-10-23T04:49:08;29.55;;;17.52;;
23884;SDS011;12123;53.088;7.392;2022-10-23T04:51:35;28.42;;;17.10;;
23884;SDS011;12123;53.088;7.392;2022-10-23T04:54:03;28.38;;;17.55;;
23884;SDS011;12123;53.088;7.392;2022-10-23T04:56:30;28.98;;;17.20;;
23884;SDS011;12123;53.088;7.392;2022-10-23T04:58:58;35.72;;;20.15;;
23884;SDS011;12123;53.088;7.392;2022-10-23T05:01:25;30.70;;;17.10;;
23884;SDS011;12123;53.088;7.392;2022-10-23T05:03:52;32.75;;;19.38;;
23884;SDS011;12123;53.088;7.392;2022-10-23T05:06:21;35.60;;;19.23;;
23884;SDS011;12123;53.088;7.392;2022-10-23T05:08:49;43.53;;;22.52;;
23884;SDS011;12123;53.088;7.392;2022-10-23T05:11:16;34.75;;;20.65;;
23884;SDS011;12123;53.088;7.392;2022-10-23T05:13:43;38.55;;;21.15;;
23884;SDS011;12123;53.088;7.392;2022-10-23T05:16:11;39.80;;;22.10;;
23884;SDS011;12123;53.088;7.392;2022-10-23T05:18:39;42.97;;;21.40;;
23884;SDS011;12123;53.088;7.392;2022-10-23T05:21:13;43.13;;;20.67;;
23884;SDS011;12123;53.088;7.392;2022-10-23T05:23:42;41.03;;;22.63;;
23884;SDS011;12123;53.088;7.392;2022-10-23T05:26:10;38.17;;;21.45;;
23884;SDS011;12123;53.088;7.392;2022-10-23T05:28:37;38.33;;;20.90;;
23884;SDS011;12123;53.088;7.392;2022-10-23T05:31:04;36.25;;;21.83;;
23884;SDS011;12123;53.088;7.392;2022-10-23T05:33:32;41.30;;;23.88;;
23884;SDS011;12123;53.088;7.392;2022-10-23T05:36:00;46.80;;;23.70;;
23884;SDS011;12123;53.088;7.392;2022-10-23T05:38:28;45.03;;;25.17;;
23884;SDS011;12123;53.088;7.392;2022-10-23T05:40:56;43.33;;;22.75;;
23884;SDS011;12123;53.088;7.392;2022-10-23T05:43:23;42.47;;;22.90;;
23884;SDS011;12123;53.088;7.392;2022-10-23T05:45:52;43.60;;;24.73;;
23884;SDS011;12123;53.088;7.392;2022-10-23T05:48:19;39.63;;;22.67;;
23884;SDS011;12123;53.088;7.392;2022-10-23T05:51:03;40.83;;;22.70;;
23884;SDS011;12123;53.088;7.392;2022-10-23T05:53:31;37.30;;;22.08;;
23884;SDS011;12123;53.088;7.392;2022-10-23T05:56:05;40.30;;;21.48;;
23884;SDS011;12123;53.088;7.392;2022-10-23T05:58:32;39.08;;;22.13;;
23884;SDS011;12123;53.088;7.392;2022-10-23T06:01:03;34.05;;;20.80;;
23884;SDS011;12123;53.088;7.392;2022-10-23T06:03:31;33.85;;;20.73;;
23884;SDS011;12123;53.088;7.392;2022-10-23T06:05:58;37.53;;;21.88;;
23884;SDS011;12123;53.088;7.392;2022-10-23T06:08:26;40.33;;;21.35;;
23884;SDS011;12123;53.088;7.392;2022-10-23T06:10:53;41.55;;;21.75;;
23884;SDS011;12123;53.088;7.392;2022-10-23T06:13:20;36.95;;;21.25;;
23884;SDS011;12123;53.088;7.392;2022-10-23T06:15:47;34.70;;;20.70;;
23884;SDS011;12123;53.088;7.392;2022-10-23T06:18:15;39.88;;;20.85;;
23884;SDS011;12123;53.088;7.392;2022-10-23T06:20:42;33.95;;;19.10;;
23884;SDS011;12123;53.088;7.392;2022-10-23T06:23:09;34.10;;;20.90;;
23884;SDS011;12123;53.088;7.392;2022-10-23T06:25:36;31.63;;;19.42;;
23884;SDS011;12123;53.088;7.392;2022-10-23T06:28:03;33.55;;;21.02;;
23884;SDS011;12123;53.088;7.392;2022-10-23T06:30:30;40.13;;;21.38;;
23884;SDS011;12123;53.088;7.392;2022-10-23T06:32:58;39.35;;;22.92;;
23884;SDS011;12123;53.088;7.392;2022-10-23T06:35:30;63.00;;;34.63;;
23884;SDS011;12123;53.088;7.392;2022-10-23T06:37:58;84.00;;;45.00;;
23884;SDS011;12123;53.088;7.392;2022-10-23T06:40:25;62.75;;;34.38;;
23884;SDS011;12123;53.088;7.392;2022-10-23T06:42:54;60.60;;;34.53;;
23884;SDS011;12123;53.088;7.392;2022-10-23T06:45:21;62.35;;;37.33;;
23884;SDS011;12123;53.088;7.392;2022-10-23T06:47:49;61.05;;;34.25;;
23884;SDS011;12123;53.088;7.392;2022-10-23T06:50:16;49.38;;;28.58;;
23884;SDS011;12123;53.088;7.392;2022-10-23T06:52:44;50.30;;;27.67;;
23884;SDS011;12123;53.088;7.392;2022-10-23T06:55:13;43.35;;;23.70;;
23884;SDS011;12123;53.088;7.392;2022-10-23T06:57:40;45.60;;;24.27;;
23884;SDS011;12123;53.088;7.392;2022-10-23T07:00:08;42.45;;;23.27;;
23884;SDS011;12123;53.088;7.392;2022-10-23T07:02:36;39.78;;;21.45;;
23884;SDS011;12123;53.088;7.392;2022-10-23T07:05:03;42.65;;;23.00;;
23884;SDS011;12123;53.088;7.392;2022-10-23T07:07:36;42.38;;;23.35;;
23884;SDS011;12123;53.088;7.392;2022-10-23T07:10:03;44.33;;;23.08;;
23884;SDS011;12123;53.088;7.392;2022-10-23T07:12:31;42.35;;;22.00;;
23884;SDS011;12123;53.088;7.392;2022-10-23T07:14:58;34.83;;;20.80;;
23884;SDS011;12123;53.088;7.392;2022-10-23T07:17:26;39.15;;;21.67;;
23884;SDS011;12123;53.088;7.392;2022-10-23T07:19:54;34.80;;;22.42;;
23884;SDS011;12123;53.088;7.392;2022-10-23T07:22:22;36.33;;;21.73;;
23884;SDS011;12123;53.088;7.392;2022-10-23T07:24:49;34.58;;;21.08;;
23884;SDS011;12123;53.088;7.392;2022-10-23T07:27:16;36.67;;;21.40;;
23884;SDS011;12123;53.088;7.392;2022-10-23T07:29:43;35.67;;;21.15;;
23884;SDS011;12123;53.088;7.392;2022-10-23T07:32:10;36.20;;;22.00;;
23884;SDS011;12123;53.088;7.392;2022-10-23T07:34:38;36.75;;;21.73;;
23884;SDS011;12123;53.088;7.392;2022-10-23T07:37:05;37.45;;;21.65;;
23884;SDS011;12123;53.088;7.392;2022-10-23T07:39:32;35.22;;;21.85;;
23884;SDS011;12123;53.088;7.392;2022-10-23T07:41:59;33.38;;;21.77;;
23884;SDS011;12123;53.088;7.392;2022-10-23T07:44:26;31.52;;;20.88;;
23884;SDS011;12123;53.088;7.392;2022-10-23T07:46:54;34.60;;;20.55;;
23884;SDS011;12123;53.088;7.392;2022-10-23T07:49:21;36.97;;;20.02;;
23884;SDS011;12123;53.088;7.392;2022-10-23T07:51:48;38.15;;;20.27;;
23884;SDS011;12123;53.088;7.392;2022-10-23T07:54:17;31.38;;;20.23;;
23884;SDS011;12123;53.088;7.392;2022-10-23T07:56:44;35.60;;;21.20;;
23884;SDS011;12123;53.088;7.392;2022-10-23T07:59:11;36.55;;;19.15;;
23884;SDS011;12123;53.088;7.392;2022-10-23T08:01:39;34.75;;;18.98;;
23884;SDS011;12123;53.088;7.392;2022-10-23T08:04:08;31.75;;;19.15;;
23884;SDS011;12123;53.088;7.392;2022-10-23T08:06:36;35.13;;;18.27;;
23884;SDS011;12123;53.088;7.392;2022-10-23T08:09:03;31.48;;;17.83;;
23884;SDS011;12123;53.088;7.392;2022-10-23T08:11:32;31.67;;;17.55;;
23884;SDS011;12123;53.088;7.392;2022-10-23T08:14:02;25.58;;;17.35;;
23884;SDS011;12123;53.088;7.392;2022-10-23T08:16:32;29.25;;;17.38;;
23884;SDS011;12123;53.088;7.392;2022-10-23T08:19:00;28.38;;;17.05;;
23884;SDS011;12123;53.088;7.392;2022-10-23T08:21:27;24.23;;;15.88;;
23884;SDS011;12123;53.088;7.392;2022-10-23T08:23:54;34.45;;;16.60;;
23884;SDS011;12123;53.088;7.392;2022-10-23T08:26:22;26.75;;;15.90;;
23884;SDS011;12123;53.088;7.392;2022-10-23T08:28:50;28.63;;;15.63;;
23884;SDS011;12123;53.088;7.392;2022-10-23T08:31:18;27.60;;;15.57;;
23884;SDS011;12123;53.088;7.392;2022-10-23T08:33:45;23.50;;;14.93;;
23884;SDS011;12123;53.088;7.392;2022-10-23T08:38:45;25.73;;;15.45;;
23884;SDS011;12123;53.088;7.392;2022-10-23T08:44:35;22.92;;;13.40;;
23884;SDS011;12123;53.088;7.392;2022-10-23T08:46:43;29.08;;;14.32;;
23884;SDS011;12123;53.088;7.392;2022-10-23T08:51:40;24.77;;;13.65;;
23884;SDS011;12123;53.088;7.392;2022-10-23T08:54:19;20.75;;;13.95;;
23884;SDS011;12123;53.088;7.392;2022-10-23T08:56:51;22.02;;;13.02;;
23884;SDS011;12123;53.088;7.392;2022-10-23T08:59:34;23.75;;;13.63;;
23884;SDS011;12123;53.088;7.392;2022-10-23T09:04:38;21.17;;;12.18;;
23884;SDS011;12123;53.088;7.392;2022-10-23T09:12:07;21.40;;;12.23;;
23884;SDS011;12123;53.088;7.392;2022-10-23T09:19:53;25.05;;;11.93;;
23884;SDS011;12123;53.088;7.392;2022-10-23T09:22:21;18.48;;;11.40;;
23884;SDS011;12123;53.088;7.392;2022-10-23T09:24:48;23.15;;;11.40;;
23884;SDS011;12123;53.088;7.392;2022-10-23T09:27:19;21.33;;;11.38;;
23884;SDS011;12123;53.088;7.392;2022-10-23T09:29:51;20.17;;;11.02;;
23884;SDS011;12123;53.088;7.392;2022-10-23T09:32:19;19.20;;;10.85;;
23884;SDS011;12123;53.088;7.392;2022-10-23T09:34:51;20.15;;;10.38;;
23884;SDS011;12123;53.088;7.392;2022-10-23T09:37:26;16.63;;;9.98;;
23884;SDS011;12123;53.088;7.392;2022-10-23T09:40:00;22.10;;;10.63;;
23884;SDS011;12123;53.088;7.392;2022-10-23T09:42:27;16.95;;;10.05;;
23884;SDS011;12123;53.088;7.392;2022-10-23T09:44:55;22.38;;;10.38;;
23884;SDS011;12123;53.088;7.392;2022-10-23T09:47:23;17.88;;;10.45;;
23884;SDS011;12123;53.088;7.392;2022-10-23T09:49:54;16.42;;;9.57;;
23884;SDS011;12123;53.088;7.392;2022-10-23T09:52:34;15.13;;;9.82;;
23884;SDS011;12123;53.088;7.392;2022-10-23T09:55:02;13.68;;;9.55;;
23884;SDS011;12123;53.088;7.392;2022-10-23T09:57:41;15.50;;;9.20;;
23884;SDS011;12123;53.088;7.392;2022-10-23T10:02:53;15.38;;;8.68;;
23884;SDS011;12123;53.088;7.392;2022-10-23T10:08:38;14.57;;;8.23;;
23884;SDS011;12123;53.088;7.392;2022-10-23T10:10:39;14.35;;;8.65;;
23884;SDS011;12123;53.088;7.392;2022-10-23T10:13:15;20.42;;;8.20;;
23884;SDS011;12123;53.088;7.392;2022-10-23T10:15:52;14.77;;;8.15;;
23884;SDS011;12123;53.088;7.392;2022-10-23T10:23:27;20.90;;;8.32;;
23884;SDS011;12123;53.088;7.392;2022-10-23T10:28:52;15.48;;;7.43;;
23884;SDS011;12123;53.088;7.392;2022-10-23T10:36:25;16.73;;;7.63;;
23884;SDS011;12123;53.088;7.392;2022-10-23T10:38:55;13.75;;;7.68;;
23884;SDS011;12123;53.088;7.392;2022-10-23T10:46:49;11.45;;;6.90;;
23884;SDS011;12123;53.088;7.392;2022-10-23T10:51:54;16.17;;;6.32;;
23884;SDS011;12123;53.088;7.392;2022-10-23T10:56:53;12.18;;;6.15;;
23884;SDS011;12123;53.088;7.392;2022-10-23T10:59:26;15.43;;;6.22;;
23884;SDS011;12123;53.088;7.392;2022-10-23T11:06:52;17.17;;;6.93;;
23884;SDS011;12123;53.088;7.392;2022-10-23T11:09:20;10.75;;;5.57;;
23884;SDS011;12123;53.088;7.392;2022-10-23T11:11:48;8.35;;;6.07;;
23884;SDS011;12123;53.088;7.392;2022-10-23T11:14:15;14.48;;;6.13;;
23884;SDS011;12123;53.088;7.392;2022-10-23T11:16:50;20.27;;;6.25;;
23884;SDS011;12123;53.088;7.392;2022-10-23T11:19:25;15.85;;;6.70;;
23884;SDS011;12123;53.088;7.392;2022-10-23T11:22:10;12.30;;;6.25;;
23884;SDS011;12123;53.088;7.392;2022-10-23T11:30:03;12.80;;;6.82;;
23884;SDS011;12123;53.088;7.392;2022-10-23T11:38:07;11.82;;;6.18;;
23884;SDS011;12123;53.088;7.392;2022-10-23T11:40:44;13.07;;;6.30;;
23884;SDS011;12123;53.088;7.392;2022-10-23T11:43:12;16.92;;;6.13;;
23884;SDS011;12123;53.088;7.392;2022-10-23T11:45:39;10.98;;;6.38;;
23884;SDS011;12123;53.088;7.392;2022-10-23T11:56:00;18.92;;;7.95;;
23884;SDS011;12123;53.088;7.392;2022-10-23T11:58:38;13.90;;;7.97;;
23884;SDS011;12123;53.088;7.392;2022-10-23T12:03:48;10.77;;;6.07;;
23884;SDS011;12123;53.088;7.392;2022-10-23T12:06:20;16.10;;;7.18;;
23884;SDS011;12123;53.088;7.392;2022-10-23T12:08:49;12.95;;;6.40;;
23884;SDS011;12123;53.088;7.392;2022-10-23T12:12:00;15.38;;;6.97;;
23884;SDS011;12123;53.088;7.392;2022-10-23T12:14:25;10.98;;;6.47;;
23884;SDS011;12123;53.088;7.392;2022-10-23T12:16:52;10.13;;;5.35;;
23884;SDS011;12123;53.088;7.392;2022-10-23T12:19:20;12.07;;;5.57;;
23884;SDS011;12123;53.088;7.392;2022-10-23T12:21:56;13.93;;;5.57;;
23884;SDS011;12123;53.088;7.392;2022-10-23T12:24:38;9.65;;;5.22;;
23884;SDS011;12123;53.088;7.392;2022-10-23T12:27:17;9.57;;;5.03;;
23884;SDS011;12123;53.088;7.392;2022-10-23T12:40:08;9.15;;;4.80;;
23884;SDS011;12123;53.088;7.392;2022-10-23T12:42:36;15.18;;;5.15;;
23884;SDS011;12123;53.088;7.392;2022-10-23T12:45:16;18.90;;;5.10;;
23884;SDS011;12123;53.088;7.392;2022-10-23T12:47:45;10.30;;;5.38;;
23884;SDS011;12123;53.088;7.392;2022-10-23T12:52:56;9.60;;;5.13;;
23884;SDS011;12123;53.088;7.392;2022-10-23T12:55:24;13.07;;;5.88;;
23884;SDS011;12123;53.088;7.392;2022-10-23T12:57:53;13.05;;;5.38;;
23884;SDS011;12123;53.088;7.392;2022-10-23T13:00:21;9.80;;;5.32;;
23884;SDS011;12123;53.088;7.392;2022-10-23T13:03:02;13.23;;;5.72;;
23884;SDS011;12123;53.088;7.392;2022-10-23T13:05:30;14.48;;;5.03;;
23884;SDS011;12123;53.088;7.392;2022-10-23T13:07:58;9.88;;;5.53;;
23884;SDS011;12123;53.088;7.392;2022-10-23T13:10:26;9.60;;;5.28;;
23884;SDS011;12123;53.088;7.392;2022-10-23T13:12:57;10.38;;;5.63;;
23884;SDS011;12123;53.088;7.392;2022-10-23T13:15:34;10.15;;;5.25;;
23884;SDS011;12123;53.088;7.392;2022-10-23T13:18:02;13.10;;;4.75;;
23884;SDS011;12123;53.088;7.392;2022-10-23T13:20:31;12.40;;;5.25;;
23884;SDS011;12123;53.088;7.392;2022-10-23T13:25:31;13.10;;;5.65;;
23884;SDS011;12123;53.088;7.392;2022-10-23T13:30:44;14.38;;;5.97;;
23884;SDS011;12123;53.088;7.392;2022-10-23T13:33:13;10.90;;;5.13;;
23884;SDS011;12123;53.088;7.392;2022-10-23T13:35:40;13.82;;;5.30;;
23884;SDS011;12123;53.088;7.392;2022-10-23T13:38:08;8.65;;;4.78;;
23884;SDS011;12123;53.088;7.392;2022-10-23T13:40:35;13.55;;;5.72;;
23884;SDS011;12123;53.088;7.392;2022-10-23T13:43:04;8.35;;;5.00;;
23884;SDS011;12123;53.088;7.392;2022-10-23T13:45:39;13.52;;;4.60;;
23884;SDS011;12123;53.088;7.392;2022-10-23T13:48:11;13.10;;;5.75;;
23884;SDS011;12123;53.088;7.392;2022-10-23T13:50:40;7.90;;;5.10;;
23884;SDS011;12123;53.088;7.392;2022-10-23T13:53:10;9.13;;;5.10;;
23884;SDS011;12123;53.088;7.392;2022-10-23T13:55:38;11.75;;;4.70;;
23884;SDS011;12123;53.088;7.392;2022-10-23T13:58:07;11.02;;;4.82;;
23884;SDS011;12123;53.088;7.392;2022-10-23T14:00:35;8.52;;;4.30;;
23884;SDS011;12123;53.088;7.392;2022-10-23T14:03:03;12.02;;;4.80;;
23884;SDS011;12123;53.088;7.392;2022-10-23T14:05:30;11.32;;;4.57;;
23884;SDS011;12123;53.088;7.392;2022-10-23T14:07:57;10.48;;;4.80;;
23884;SDS011;12123;53.088;7.392;2022-10-23T14:10:25;15.35;;;4.55;;
23884;SDS011;12123;53.088;7.392;2022-10-23T14:12:53;11.13;;;4.78;;
23884;SDS011;12123;53.088;7.392;2022-10-23T14:15:20;9.80;;;4.50;;
23884;SDS011;12123;53.088;7.392;2022-10-23T14:17:48;7.28;;;3.97;;
23884;SDS011;12123;53.088;7.392;2022-10-23T14:20:19;12.82;;;4.80;;
23884;SDS011;12123;53.088;7.392;2022-10-23T14:22:52;12.70;;;4.57;;
23884;SDS011;12123;53.088;7.392;2022-10-23T14:25:19;12.18;;;4.43;;
23884;SDS011;12123;53.088;7.392;2022-10-23T14:27:46;18.88;;;4.88;;
23884;SDS011;12123;53.088;7.392;2022-10-23T14:30:13;9.77;;;4.07;;
23884;SDS011;12123;53.088;7.392;2022-10-23T14:32:41;9.90;;;5.00;;
23884;SDS011;12123;53.088;7.392;2022-10-23T14:35:09;11.18;;;4.70;;
23884;SDS011;12123;53.088;7.392;2022-10-23T14:37:36;10.52;;;5.25;;
23884;SDS011;12123;53.088;7.392;2022-10-23T14:40:04;10.55;;;4.63;;
23884;SDS011;12123;53.088;7.392;2022-10-23T14:42:32;15.63;;;5.28;;
23884;SDS011;12123;53.088;7.392;2022-10-23T14:45:00;15.88;;;5.55;;
23884;SDS011;12123;53.088;7.392;2022-10-23T14:47:27;11.07;;;4.57;;
23884;SDS011;12123;53.088;7.392;2022-10-23T14:49:55;8.82;;;4.97;;
23884;SDS011;12123;53.088;7.392;2022-10-23T14:52:22;11.40;;;4.35;;
23884;SDS011;12123;53.088;7.392;2022-10-23T14:54:52;8.65;;;4.28;;
23884;SDS011;12123;53.088;7.392;2022-10-23T14:57:20;12.85;;;5.18;;
23884;SDS011;12123;53.088;7.392;2022-10-23T14:59:48;10.98;;;4.43;;
23884;SDS011;12123;53.088;7.392;2022-10-23T15:02:15;7.03;;;4.03;;
23884;SDS011;12123;53.088;7.392;2022-10-23T15:04:43;15.98;;;4.75;;
23884;SDS011;12123;53.088;7.392;2022-10-23T15:07:10;13.57;;;5.43;;
23884;SDS011;12123;53.088;7.392;2022-10-23T15:09:37;12.68;;;4.30;;
23884;SDS011;12123;53.088;7.392;2022-10-23T15:12:05;10.63;;;4.45;;
23884;SDS011;12123;53.088;7.392;2022-10-23T15:14:33;10.40;;;4.97;;
23884;SDS011;12123;53.088;7.392;2022-10-23T15:17:00;11.15;;;4.63;;
23884;SDS011;12123;53.088;7.392;2022-10-23T15:19:28;10.40;;;5.20;;
23884;SDS011;12123;53.088;7.392;2022-10-23T15:21:55;13.20;;;5.18;;
23884;SDS011;12123;53.088;7.392;2022-10-23T15:24:22;7.47;;;4.90;;
23884;SDS011;12123;53.088;7.392;2022-10-23T15:26:49;7.60;;;4.65;;
23884;SDS011;12123;53.088;7.392;2022-10-23T15:29:17;10.25;;;4.50;;
23884;SDS011;12123;53.088;7.392;2022-10-23T15:31:51;10.80;;;4.63;;
23884;SDS011;12123;53.088;7.392;2022-10-23T15:34:23;16.15;;;5.15;;
23884;SDS011;12123;53.088;7.392;2022-10-23T15:36:51;11.90;;;5.25;;
23884;SDS011;12123;53.088;7.392;2022-10-23T15:39:20;13.18;;;5.75;;
23884;SDS011;12123;53.088;7.392;2022-10-23T15:41:52;12.68;;;6.88;;
23884;SDS011;12123;53.088;7.392;2022-10-23T15:44:21;10.93;;;5.53;;
23884;SDS011;12123;53.088;7.392;2022-10-23T15:46:48;13.45;;;6.00;;
23884;SDS011;12123;53.088;7.392;2022-10-23T15:49:17;14.60;;;6.25;;
23884;SDS011;12123;53.088;7.392;2022-10-23T15:51:44;11.65;;;5.43;;
23884;SDS011;12123;53.088;7.392;2022-10-23T15:54:12;13.63;;;5.43;;
23884;SDS011;12123;53.088;7.392;2022-10-23T15:56:45;11.65;;;5.03;;
23884;SDS011;12123;53.088;7.392;2022-10-23T15:59:12;10.98;;;4.90;;
23884;SDS011;12123;53.088;7.392;2022-10-23T16:01:39;9.13;;;4.85;;
23884;SDS011;12123;53.088;7.392;2022-10-23T16:04:07;14.52;;;4.70;;
23884;SDS011;12123;53.088;7.392;2022-10-23T16:06:34;12.55;;;4.78;;
23884;SDS011;12123;53.088;7.392;2022-10-23T16:09:02;11.93;;;5.35;;
23884;SDS011;12123;53.088;7.392;2022-10-23T16:11:30;12.32;;;4.90;;
23884;SDS011;12123;53.088;7.392;2022-10-23T16:13:58;15.30;;;5.10;;
23884;SDS011;12123;53.088;7.392;2022-10-23T16:16:26;15.93;;;6.57;;
23884;SDS011;12123;53.088;7.392;2022-10-23T16:18:53;10.00;;;4.93;;
23884;SDS011;12123;53.088;7.392;2022-10-23T16:21:22;14.85;;;4.93;;
23884;SDS011;12123;53.088;7.392;2022-10-23T16:23:50;10.82;;;4.90;;
23884;SDS011;12123;53.088;7.392;2022-10-23T16:26:17;14.70;;;5.40;;
23884;SDS011;12123;53.088;7.392;2022-10-23T16:28:45;9.98;;;5.28;;
23884;SDS011;12123;53.088;7.392;2022-10-23T16:31:16;7.90;;;4.50;;
23884;SDS011;12123;53.088;7.392;2022-10-23T16:33:46;11.18;;;4.22;;
23884;SDS011;12123;53.088;7.392;2022-10-23T16:36:14;8.38;;;3.78;;
23884;SDS011;12123;53.088;7.392;2022-10-23T16:38:41;11.25;;;4.68;;
23884;SDS011;12123;53.088;7.392;2022-10-23T16:41:08;9.32;;;4.60;;
23884;SDS011;12123;53.088;7.392;2022-10-23T16:43:35;10.77;;;4.20;;
23884;SDS011;12123;53.088;7.392;2022-10-23T16:46:04;13.35;;;3.97;;
23884;SDS011;12123;53.088;7.392;2022-10-23T16:48:32;5.63;;;4.10;;
23884;SDS011;12123;53.088;7.392;2022-10-23T16:50:59;10.48;;;4.53;;